Terminal Aerodrome Forecast
Issued by NWS

Home | Current Version | Previous Version | Text Only | Print | Product List | Glossary On
Versions: 1 2 3 4 5 6 7 8 9 10 11 12 13 14
000
FTUS45 KREV 191700
TAFTRK
TAF
KTRK 191738Z 1918/2018 24014G24KT P6SM FEW080 BKN180
     FM200300 VRB03KT P6SM FEW180=

USA.gov is the U.S. government's official web portal to all federal, state and local government web resources and services.